createdAt,value
2018-02-01T00:01:49.249Z,3.70
2018-02-01T00:04:17.404Z,3.40
2018-02-01T00:06:45.677Z,6.07
2018-02-01T00:09:13.571Z,3.00
2018-02-01T00:11:41.492Z,2.10
2018-02-01T00:14:09.370Z,4.80
2018-02-01T00:16:37.324Z,3.73
2018-02-01T00:19:05.389Z,2.53
2018-02-01T00:21:34.124Z,2.60
2018-02-01T00:24:02.073Z,2.40
2018-02-01T00:26:30.121Z,2.90
2018-02-01T00:28:58.248Z,4.53
2018-02-01T00:31:26.129Z,3.80
2018-02-01T00:33:55.019Z,6.20
2018-02-01T00:36:22.964Z,3.87
2018-02-01T00:38:50.845Z,2.63
2018-02-01T00:41:18.708Z,3.13
2018-02-01T00:43:46.530Z,2.43
2018-02-01T00:46:14.749Z,3.97
2018-02-01T00:48:42.630Z,1.83
2018-02-01T00:51:10.506Z,2.27
2018-02-01T00:53:38.365Z,2.97
2018-02-01T00:56:06.234Z,4.17
2018-02-01T00:58:34.072Z,3.07
2018-02-01T01:01:01.936Z,3.17
2018-02-01T01:03:29.810Z,3.40
2018-02-01T01:05:57.668Z,5.20
2018-02-01T01:08:25.506Z,4.57
2018-02-01T01:10:53.411Z,3.70
2018-02-01T01:13:21.312Z,6.00
2018-02-01T01:15:49.139Z,4.07
2018-02-01T01:18:17.004Z,4.17
2018-02-01T01:20:44.871Z,4.57
2018-02-01T01:23:12.716Z,6.10
2018-02-01T01:25:40.761Z,7.70
2018-02-01T01:28:08.670Z,3.40
2018-02-01T01:30:36.515Z,5.43
2018-02-01T01:33:04.375Z,3.00
2018-02-01T01:35:32.212Z,9.60
2018-02-01T01:38:00.058Z,3.40
2018-02-01T01:40:27.944Z,4.87
2018-02-01T01:42:55.771Z,2.83
2018-02-01T01:45:23.615Z,4.43
2018-02-01T01:47:51.494Z,2.43
2018-02-01T01:50:19.333Z,4.00
2018-02-01T01:52:47.216Z,2.03
2018-02-01T01:55:15.071Z,3.30
2018-02-01T01:57:42.909Z,2.53
2018-02-01T02:00:10.762Z,2.40
2018-02-01T02:02:38.635Z,1.87
2018-02-01T02:05:06.471Z,5.53
2018-02-01T02:07:34.299Z,1.97
2018-02-01T02:10:02.187Z,2.10
2018-02-01T02:12:30.030Z,2.30
2018-02-01T02:14:57.907Z,1.67
2018-02-01T02:17:25.817Z,2.60
2018-02-01T02:19:53.679Z,2.27
2018-02-01T02:22:21.500Z,2.03
2018-02-01T02:24:49.415Z,2.27
2018-02-01T02:27:17.278Z,5.30
2018-02-01T02:29:45.115Z,2.27
2018-02-01T02:32:19.140Z,3.03
2018-02-01T02:34:47.006Z,1.70
2018-02-01T02:37:14.869Z,4.00
2018-02-01T02:39:42.777Z,1.27
2018-02-01T02:42:10.639Z,1.10
2018-02-01T02:44:38.490Z,2.20
2018-02-01T02:47:06.415Z,1.00
2018-02-01T02:49:34.266Z,2.57
2018-02-01T02:52:02.132Z,1.40
2018-02-01T02:54:30.022Z,1.37
2018-02-01T02:56:57.858Z,2.67
2018-02-01T02:59:25.724Z,1.50
2018-02-01T03:01:53.600Z,1.80
2018-02-01T03:04:21.444Z,4.90
2018-02-01T03:06:49.275Z,2.53
2018-02-01T03:09:17.139Z,2.50
2018-02-01T03:11:45.001Z,1.27
2018-02-01T03:14:12.832Z,1.40
2018-02-01T03:16:40.716Z,2.57
2018-02-01T03:19:08.558Z,2.70
2018-02-01T03:21:36.400Z,1.90
2018-02-01T03:24:04.260Z,1.60
2018-02-01T03:26:32.112Z,2.67
2018-02-01T03:28:59.946Z,2.60
2018-02-01T03:31:27.812Z,2.90
2018-02-01T03:33:55.680Z,3.00
2018-02-01T03:36:23.551Z,2.37
2018-02-01T03:38:51.422Z,2.33
2018-02-01T03:41:19.283Z,2.40
2018-02-01T03:43:47.120Z,2.60
2018-02-01T03:46:14.975Z,2.47
2018-02-01T03:48:42.821Z,2.70
2018-02-01T03:51:10.675Z,2.87
2018-02-01T03:53:38.542Z,2.83
2018-02-01T03:56:06.379Z,1.90
2018-02-01T03:58:34.229Z,2.50
2018-02-01T04:01:02.107Z,3.23
2018-02-01T04:03:29.938Z,3.33
2018-02-01T04:05:57.776Z,3.37
2018-02-01T04:08:25.635Z,2.87
2018-02-01T04:10:53.467Z,3.23
2018-02-01T04:13:21.299Z,3.47
2018-02-01T04:15:49.239Z,3.03
2018-02-01T04:18:17.107Z,3.50
2018-02-01T04:20:44.934Z,3.40
2018-02-01T04:23:12.794Z,3.60
2018-02-01T04:25:40.704Z,3.40
2018-02-01T04:28:08.539Z,3.73
2018-02-01T04:30:36.441Z,4.03
2018-02-01T04:33:04.302Z,3.30
2018-02-01T04:35:32.143Z,3.83
2018-02-01T04:37:59.998Z,3.40
2018-02-01T04:40:27.837Z,3.80
2018-02-01T04:42:55.698Z,3.57
2018-02-01T04:45:23.545Z,3.10
2018-02-01T04:47:51.418Z,3.33
2018-02-01T04:50:19.288Z,3.73
2018-02-01T04:52:47.147Z,3.77
2018-02-01T04:55:14.998Z,3.17
2018-02-01T04:57:42.840Z,3.47
2018-02-01T05:00:10.715Z,3.77
2018-02-01T05:02:38.550Z,3.70
2018-02-01T05:05:06.427Z,4.23
2018-02-01T05:07:34.269Z,4.73
2018-02-01T05:10:02.112Z,4.70
2018-02-01T05:12:29.968Z,4.70
2018-02-01T05:14:57.792Z,4.47
2018-02-01T05:17:25.667Z,4.17
2018-02-01T05:19:53.571Z,3.57
2018-02-01T05:22:21.435Z,4.00
2018-02-01T05:24:49.281Z,4.50
2018-02-01T05:27:17.123Z,4.03
2018-02-01T05:29:45.001Z,3.80
2018-02-01T05:32:12.865Z,3.07
2018-02-01T05:34:40.723Z,2.60
2018-02-01T05:37:08.567Z,2.93
2018-02-01T05:39:36.394Z,3.80
2018-02-01T05:42:04.260Z,2.53
2018-02-01T05:44:32.105Z,2.37
2018-02-01T05:46:59.978Z,2.83
2018-02-01T05:49:27.816Z,2.93
2018-02-01T05:51:55.676Z,2.60
2018-02-01T05:54:23.517Z,2.90
2018-02-01T05:56:51.358Z,3.00
2018-02-01T05:59:19.272Z,3.23
2018-02-01T06:01:47.131Z,3.20
2018-02-01T06:04:14.968Z,3.47
2018-02-01T06:06:42.828Z,3.53
2018-02-01T06:09:10.701Z,3.20
2018-02-01T06:11:38.544Z,3.47
2018-02-01T06:14:06.403Z,2.30
2018-02-01T06:16:34.248Z,4.37
2018-02-01T06:19:02.086Z,3.67
2018-02-01T06:21:29.976Z,4.70
2018-02-01T06:23:57.816Z,3.00
2018-02-01T06:26:25.703Z,4.73
2018-02-01T06:28:53.593Z,3.30
2018-02-01T06:31:21.445Z,8.30
2018-02-01T06:33:49.284Z,3.70
2018-02-01T06:36:17.149Z,2.80
2018-02-01T06:38:44.997Z,4.33
2018-02-01T06:41:12.892Z,3.50
2018-02-01T06:43:40.809Z,3.27
2018-02-01T06:46:08.697Z,6.20
2018-02-01T06:48:36.541Z,3.60
2018-02-01T06:51:04.426Z,3.30
2018-02-01T06:53:32.305Z,4.90
2018-02-01T06:56:00.164Z,4.17
2018-02-01T06:58:28.034Z,4.03
2018-02-01T07:00:55.905Z,3.30
2018-02-01T07:03:23.736Z,3.80
2018-02-01T07:05:51.592Z,6.60
2018-02-01T07:08:19.494Z,3.53
2018-02-01T07:10:47.334Z,3.20
2018-02-01T07:13:15.192Z,3.60
2018-02-01T07:15:43.049Z,4.87
2018-02-01T07:18:10.887Z,3.33
2018-02-01T07:20:40.693Z,3.03
2018-02-01T07:23:08.600Z,2.70
2018-02-01T07:25:36.437Z,3.53
2018-02-01T07:28:04.334Z,4.50
2018-02-01T07:30:32.158Z,3.80
2018-02-01T07:32:59.984Z,5.40
2018-02-01T07:35:27.840Z,5.00
2018-02-01T07:37:55.659Z,5.50
2018-02-01T07:40:23.496Z,5.40
2018-02-01T07:42:51.374Z,4.97
2018-02-01T07:45:19.260Z,5.03
2018-02-01T07:47:47.138Z,5.20
2018-02-01T07:50:14.993Z,6.20
2018-02-01T07:52:42.944Z,6.40
2018-02-01T07:55:10.804Z,4.83
2018-02-01T07:57:38.661Z,4.50
2018-02-01T08:00:07.480Z,4.97
2018-02-01T08:02:35.333Z,4.17
2018-02-01T08:05:03.196Z,4.50
2018-02-01T08:07:31.045Z,4.50
2018-02-01T08:09:58.899Z,3.97
2018-02-01T08:12:25.053Z,4.63
2018-02-01T08:14:51.154Z,4.30
2018-02-01T08:17:17.252Z,5.67
2018-02-01T08:19:43.372Z,4.27
2018-02-01T08:22:09.561Z,5.10
2018-02-01T08:24:37.426Z,4.73
2018-02-01T08:27:05.318Z,5.17
2018-02-01T08:29:33.178Z,4.20
2018-02-01T08:32:01.046Z,3.90
2018-02-01T08:34:28.953Z,5.20
2018-02-01T08:36:56.783Z,4.60
2018-02-01T08:39:24.653Z,5.23
2018-02-01T08:41:52.565Z,4.97
2018-02-01T08:44:20.454Z,5.73
2018-02-01T08:46:48.363Z,5.10
2018-02-01T08:49:16.257Z,4.80
2018-02-01T08:51:44.104Z,4.40
2018-02-01T08:54:11.968Z,4.70
2018-02-01T08:56:39.895Z,4.80
2018-02-01T08:59:07.739Z,4.90
2018-02-01T09:01:35.600Z,4.83
2018-02-01T09:04:03.505Z,5.10
2018-02-01T09:06:31.390Z,4.20
2018-02-01T09:08:59.265Z,4.60
2018-02-01T09:11:27.145Z,4.00
2018-02-01T09:13:55.061Z,4.30
2018-02-01T09:16:22.924Z,5.33
2018-02-01T09:18:50.800Z,4.37
2018-02-01T09:21:18.634Z,5.90
2018-02-01T09:23:46.482Z,5.00
2018-02-01T09:26:14.406Z,4.80
2018-02-01T09:28:42.332Z,3.40
2018-02-01T09:31:10.418Z,4.90
2018-02-01T09:33:38.324Z,3.37
2018-02-01T09:36:06.208Z,8.10
2018-02-01T09:38:34.061Z,4.30
2018-02-01T09:41:01.993Z,7.20
2018-02-01T09:43:29.915Z,6.50
2018-02-01T09:45:57.780Z,3.70
2018-02-01T09:48:25.664Z,8.03
2018-02-01T09:50:53.556Z,4.50
2018-02-01T09:53:21.619Z,5.00
2018-02-01T09:55:49.525Z,4.00
2018-02-01T09:58:17.391Z,3.57
2018-02-01T10:00:45.256Z,4.47
2018-02-01T10:03:13.230Z,3.63
2018-02-01T10:05:41.104Z,4.53
2018-02-01T10:08:08.956Z,6.67
2018-02-01T10:10:36.842Z,3.10
2018-02-01T10:13:04.768Z,4.27
2018-02-01T10:15:32.654Z,3.43
2018-02-01T10:18:00.590Z,3.40
2018-02-01T10:20:28.453Z,6.33
2018-02-01T10:22:56.373Z,4.87
2018-02-01T10:25:24.260Z,3.10
2018-02-01T10:27:52.166Z,5.17
2018-02-01T10:30:20.035Z,3.60
2018-02-01T10:32:47.934Z,2.70
2018-02-01T10:35:15.769Z,2.60
2018-02-01T10:37:43.663Z,6.33
2018-02-01T10:40:11.534Z,2.80
2018-02-01T10:42:39.421Z,3.20
2018-02-01T10:45:07.312Z,3.20
2018-02-01T10:47:35.246Z,3.10
2018-02-01T10:50:03.110Z,3.00
2018-02-01T10:52:31.045Z,3.00
2018-02-01T10:54:58.964Z,2.90
2018-02-01T10:57:26.845Z,2.70
2018-02-01T10:59:55.219Z,2.80
2018-02-01T11:02:23.124Z,2.50
2018-02-01T11:04:50.999Z,3.20
2018-02-01T11:07:18.908Z,5.90
2018-02-01T11:09:46.797Z,3.27
2018-02-01T11:12:14.792Z,4.17
2018-02-01T11:14:42.635Z,3.10
2018-02-01T11:17:10.537Z,2.43
2018-02-01T11:19:38.417Z,2.90
2018-02-01T11:22:06.367Z,4.47
2018-02-01T11:24:34.264Z,3.80
2018-02-01T11:27:02.217Z,4.60
2018-02-01T11:29:30.166Z,6.10
2018-02-01T11:31:58.039Z,4.30
2018-02-01T11:34:26.032Z,7.27
2018-02-01T11:36:53.960Z,5.43
2018-02-01T11:39:21.879Z,3.43
2018-02-01T11:41:49.768Z,3.50
2018-02-01T11:44:17.657Z,3.30
2018-02-01T11:46:45.535Z,4.40
2018-02-01T11:49:13.538Z,4.33
2018-02-01T11:51:41.387Z,4.10
2018-02-01T11:54:09.284Z,3.70
2018-02-01T11:56:37.180Z,3.17
2018-02-01T11:59:05.044Z,3.80
2018-02-01T12:01:32.956Z,4.03
2018-02-01T12:04:00.786Z,2.90
2018-02-01T12:06:28.657Z,2.60
2018-02-01T12:08:56.584Z,4.63
2018-02-01T12:11:24.442Z,2.67
2018-02-01T12:13:52.347Z,2.83
2018-02-01T12:16:21.861Z,5.17
2018-02-01T12:18:49.781Z,4.53
2018-02-01T12:21:17.673Z,3.33
2018-02-01T12:23:45.539Z,3.10
2018-02-01T12:26:13.414Z,3.27
2018-02-01T12:28:41.299Z,2.90
2018-02-01T12:31:09.224Z,3.30
2018-02-01T12:33:37.143Z,2.90
2018-02-01T12:36:05.007Z,3.40
2018-02-01T12:38:33.012Z,3.03
2018-02-01T12:41:01.473Z,4.40
2018-02-01T12:43:29.337Z,2.87
2018-02-01T12:45:57.204Z,3.60
2018-02-01T12:48:25.100Z,3.10
2018-02-01T12:50:52.978Z,3.60
2018-02-01T12:53:21.873Z,3.30
2018-02-01T12:55:49.732Z,3.60
2018-02-01T12:58:17.651Z,3.10
2018-02-01T13:00:45.546Z,2.33
2018-02-01T13:03:13.485Z,2.50
2018-02-01T13:05:41.354Z,4.00
2018-02-01T13:08:09.348Z,2.53
2018-02-01T13:10:37.233Z,2.87
2018-02-01T13:13:05.123Z,3.40
2018-02-01T13:15:33.059Z,4.17
2018-02-01T13:18:00.909Z,2.63
2018-02-01T13:20:28.880Z,2.40
2018-02-01T13:22:56.787Z,2.43
2018-02-01T13:25:24.687Z,2.47
2018-02-01T13:27:52.903Z,3.90
2018-02-01T13:30:20.813Z,4.20
2018-02-01T13:32:48.687Z,3.60
2018-02-01T13:35:16.588Z,3.70
2018-02-01T13:37:44.467Z,2.80
2018-02-01T13:40:12.342Z,3.03
2018-02-01T13:42:40.255Z,3.07
2018-02-01T13:45:08.135Z,2.90
2018-02-01T13:47:36.041Z,2.93
2018-02-01T13:50:03.964Z,3.40
2018-02-01T13:52:32.168Z,2.70
2018-02-01T13:55:00.075Z,5.73
2018-02-01T13:57:27.920Z,3.10
2018-02-01T13:59:55.853Z,2.67
2018-02-01T14:02:23.699Z,2.90
2018-02-01T14:04:51.580Z,3.40
2018-02-01T14:07:19.498Z,3.40
2018-02-01T14:09:47.380Z,3.17
2018-02-01T14:12:15.290Z,3.00
2018-02-01T14:14:43.251Z,3.03
2018-02-01T14:17:11.123Z,4.43
2018-02-01T14:19:39.213Z,3.03
2018-02-01T14:22:07.164Z,3.17
2018-02-01T14:24:35.050Z,2.47
2018-02-01T14:27:02.915Z,2.73
2018-02-01T14:29:30.832Z,2.70
2018-02-01T14:31:58.817Z,3.30
2018-02-01T14:34:26.721Z,2.70
2018-02-01T14:36:54.648Z,2.37
2018-02-01T14:39:22.528Z,3.73
2018-02-01T14:41:50.392Z,3.47
2018-02-01T14:44:18.854Z,3.63
2018-02-01T14:46:46.712Z,3.80
2018-02-01T14:49:14.605Z,4.03
2018-02-01T14:51:42.738Z,4.00
2018-02-01T14:54:10.592Z,4.00
2018-02-01T14:56:38.579Z,4.40
2018-02-01T14:59:06.470Z,4.60
2018-02-01T15:01:34.339Z,4.13
2018-02-01T15:04:02.209Z,4.03
2018-02-01T15:06:31.581Z,4.60
2018-02-01T15:08:59.922Z,4.90
2018-02-01T15:11:27.819Z,5.40
2018-02-01T15:13:55.746Z,5.97
2018-02-01T15:16:23.696Z,5.77
2018-02-01T15:18:51.617Z,6.07
2018-02-01T15:21:19.519Z,7.00
2018-02-01T15:23:47.389Z,5.80
2018-02-01T15:26:15.697Z,5.43
2018-02-01T15:28:43.580Z,6.40
2018-02-01T15:31:11.498Z,8.53
2018-02-01T15:33:39.398Z,7.40
2018-02-01T15:36:07.279Z,6.17
2018-02-01T15:38:35.150Z,6.10
2018-02-01T15:41:03.029Z,7.63
2018-02-01T15:43:30.920Z,7.80
2018-02-01T15:45:58.797Z,7.33
2018-02-01T15:48:26.648Z,7.07
2018-02-01T15:50:54.589Z,7.20
2018-02-01T15:53:22.464Z,7.10
2018-02-01T15:55:50.316Z,7.30
2018-02-01T15:58:18.212Z,7.80
2018-02-01T16:00:46.092Z,9.10
2018-02-01T16:03:13.940Z,8.90
2018-02-01T16:05:41.806Z,7.37
2018-02-01T16:08:09.691Z,7.10
2018-02-01T16:10:37.605Z,7.30
2018-02-01T16:13:05.485Z,6.87
2018-02-01T16:15:33.424Z,7.60
2018-02-01T16:18:01.304Z,9.03
2018-02-01T16:20:29.238Z,6.60
2018-02-01T16:22:57.148Z,7.00
2018-02-01T16:25:25.082Z,7.80
2018-02-01T16:27:53.117Z,7.27
2018-02-01T16:30:20.993Z,7.40
2018-02-01T16:32:48.864Z,7.57
2018-02-01T16:35:16.798Z,7.40
2018-02-01T16:37:44.712Z,7.37
2018-02-01T16:40:12.730Z,8.13
2018-02-01T16:42:40.566Z,8.13
2018-02-01T16:45:08.440Z,8.47
2018-02-01T16:47:36.325Z,10.37
2018-02-01T16:50:04.250Z,10.40
2018-02-01T16:52:32.116Z,9.47
2018-02-01T16:54:59.989Z,8.80
2018-02-01T16:57:27.843Z,8.47
2018-02-01T16:59:55.793Z,9.60
2018-02-01T17:02:23.741Z,8.43
2018-02-01T17:04:51.814Z,6.70
2018-02-01T17:07:19.662Z,8.00
2018-02-01T17:09:47.512Z,8.37
2018-02-01T17:12:15.405Z,7.97
2018-02-01T17:14:43.271Z,9.87
2018-02-01T17:17:11.254Z,9.20
2018-02-01T17:19:39.933Z,8.10
2018-02-01T17:22:08.108Z,8.93
2018-02-01T17:24:36.093Z,8.70
2018-02-01T17:27:04.033Z,7.03
2018-02-01T17:29:31.999Z,7.10
2018-02-01T17:32:00.220Z,6.90
2018-02-01T17:34:28.200Z,7.40
2018-02-01T17:36:56.299Z,7.63
2018-02-01T17:39:24.251Z,9.07
2018-02-01T17:41:52.235Z,8.73
2018-02-01T17:44:20.153Z,11.60
2018-02-01T17:46:48.090Z,8.20
2018-02-01T17:49:15.994Z,9.03
2018-02-01T17:51:43.889Z,9.23
2018-02-01T17:54:11.796Z,8.30
2018-02-01T17:56:39.688Z,20.90
2018-02-01T17:59:07.607Z,7.57
2018-02-01T18:01:35.556Z,8.23
2018-02-01T18:04:03.469Z,8.40
2018-02-01T18:06:31.344Z,11.37
2018-02-01T18:08:59.241Z,7.80
2018-02-01T18:11:27.170Z,7.70
2018-02-01T18:13:55.109Z,6.90
2018-02-01T18:16:23.170Z,10.53
2018-02-01T18:18:51.562Z,16.60
2018-02-01T18:21:19.502Z,7.70
2018-02-01T18:23:47.442Z,7.57
2018-02-01T18:26:15.302Z,9.30
2018-02-01T18:28:43.284Z,6.23
2018-02-01T18:31:11.149Z,5.30
2018-02-01T18:33:39.013Z,5.97
2018-02-01T18:36:06.901Z,5.10
2018-02-01T18:38:34.825Z,6.73
2018-02-01T18:41:02.713Z,6.50
2018-02-01T18:43:30.799Z,5.23
2018-02-01T18:45:58.810Z,5.20
2018-02-01T18:48:26.728Z,6.27
2018-02-01T18:50:54.838Z,6.47
2018-02-01T18:53:22.722Z,6.50
2018-02-01T18:55:50.607Z,5.30
2018-02-01T18:58:18.625Z,7.00
2018-02-01T19:00:46.628Z,5.70
2018-02-01T19:03:14.483Z,5.80
2018-02-01T19:05:42.344Z,7.10
2018-02-01T19:08:10.228Z,5.40
2018-02-01T19:10:38.109Z,8.77
2018-02-01T19:13:05.957Z,7.57
2018-02-01T19:15:33.896Z,6.20
2018-02-01T19:18:01.982Z,10.63
2018-02-01T19:20:29.820Z,5.97
2018-02-01T19:22:57.781Z,6.60
2018-02-01T19:25:25.633Z,8.50
2018-02-01T19:27:53.547Z,5.00
2018-02-01T19:30:21.411Z,6.17
2018-02-01T19:32:49.300Z,6.40
2018-02-01T19:35:17.219Z,5.30
2018-02-01T19:37:45.125Z,6.17
2018-02-01T19:40:12.994Z,6.97
2018-02-01T19:42:40.908Z,5.47
2018-02-01T19:45:08.768Z,15.80
2018-02-01T19:47:36.676Z,5.57
2018-02-01T19:50:04.592Z,5.87
2018-02-01T19:52:32.458Z,5.90
2018-02-01T19:55:00.331Z,4.97
2018-02-01T19:57:28.264Z,6.53
2018-02-01T19:59:56.138Z,7.40
2018-02-01T20:02:24.046Z,6.00
2018-02-01T20:04:52.014Z,5.60
2018-02-01T20:07:20.129Z,6.17
2018-02-01T20:09:47.982Z,5.17
2018-02-01T20:12:15.900Z,5.03
2018-02-01T20:14:43.808Z,5.60
2018-02-01T20:17:11.678Z,5.63
2018-02-01T20:19:39.538Z,4.93
2018-02-01T20:22:07.399Z,4.60
2018-02-01T20:24:35.283Z,4.57
2018-02-01T20:27:03.196Z,5.80
2018-02-01T20:29:31.074Z,5.87
2018-02-01T20:31:58.981Z,4.97
2018-02-01T20:34:27.092Z,5.70
2018-02-01T20:36:55.126Z,6.20
2018-02-01T20:39:22.999Z,4.83
2018-02-01T20:41:50.912Z,5.37
2018-02-01T20:44:18.779Z,5.13
2018-02-01T20:46:46.617Z,6.53
2018-02-01T20:49:14.504Z,5.33
2018-02-01T20:51:42.351Z,6.30
2018-02-01T20:54:10.275Z,5.43
2018-02-01T20:56:38.109Z,5.00
2018-02-01T20:59:06.130Z,6.70
2018-02-01T21:01:34.030Z,6.57
2018-02-01T21:04:01.959Z,7.17
2018-02-01T21:06:29.904Z,5.90
2018-02-01T21:08:57.815Z,5.10
2018-02-01T21:11:25.657Z,5.10
2018-02-01T21:13:53.538Z,5.60
2018-02-01T21:16:21.413Z,4.77
2018-02-01T21:18:49.559Z,5.17
2018-02-01T21:21:17.404Z,3.93
2018-02-01T21:23:45.271Z,3.93
2018-02-01T21:26:13.182Z,4.50
2018-02-01T21:28:41.183Z,4.83
2018-02-01T21:31:09.135Z,4.90
2018-02-01T21:33:37.083Z,4.00
2018-02-01T21:36:04.950Z,4.50
2018-02-01T21:38:32.774Z,3.90
2018-02-01T21:41:00.709Z,4.33
2018-02-01T21:43:28.568Z,4.23
2018-02-01T21:45:56.456Z,5.23
2018-02-01T21:48:24.354Z,3.70
2018-02-01T21:50:52.191Z,6.30
2018-02-01T21:53:20.032Z,4.10
2018-02-01T21:55:47.910Z,4.47
2018-02-01T21:58:16.113Z,6.90
2018-02-01T22:00:44.027Z,6.00
2018-02-01T22:03:11.895Z,4.57
2018-02-01T22:05:39.797Z,3.50
2018-02-01T22:08:07.678Z,4.40
2018-02-01T22:10:35.544Z,4.30
2018-02-01T22:13:14.462Z,4.07
2018-02-01T22:15:43.639Z,4.27
2018-02-01T22:18:11.552Z,4.17
2018-02-01T22:20:39.706Z,3.70
2018-02-01T22:23:07.617Z,4.33
2018-02-01T22:25:35.460Z,3.33
2018-02-01T22:28:03.320Z,4.43
2018-02-01T22:30:31.198Z,3.60
2018-02-01T22:32:59.427Z,5.70
2018-02-01T22:35:27.603Z,4.00
2018-02-01T22:37:55.555Z,4.37
2018-02-01T22:40:23.417Z,3.23
2018-02-01T22:42:51.314Z,3.53
2018-02-01T22:45:19.188Z,3.87
2018-02-01T22:47:47.395Z,3.40
2018-02-01T22:50:15.469Z,4.10
2018-02-01T22:52:43.353Z,3.97
2018-02-01T22:55:11.803Z,2.93
2018-02-01T22:57:39.910Z,4.07
2018-02-01T23:00:08.644Z,3.30
2018-02-01T23:02:36.514Z,3.63
2018-02-01T23:05:04.390Z,4.10
2018-02-01T23:07:32.276Z,4.27
2018-02-01T23:10:00.121Z,3.53
2018-02-01T23:12:28.207Z,3.50
2018-02-01T23:14:56.430Z,4.30
2018-02-01T23:17:24.303Z,3.90
2018-02-01T23:19:52.164Z,4.50
2018-02-01T23:22:20.068Z,3.13
2018-02-01T23:24:47.916Z,2.40
2018-02-01T23:27:16.080Z,3.60
2018-02-01T23:29:43.944Z,4.33
2018-02-01T23:32:12.150Z,4.00
2018-02-01T23:34:40.024Z,3.70
2018-02-01T23:37:08.169Z,5.47
2018-02-01T23:39:36.040Z,3.93
2018-02-01T23:42:03.905Z,4.00
2018-02-01T23:44:31.795Z,3.83
2018-02-01T23:46:59.669Z,3.93
2018-02-01T23:49:27.519Z,4.30
2018-02-01T23:51:55.375Z,4.47
2018-02-01T23:54:23.263Z,4.00
2018-02-01T23:56:51.715Z,3.43
2018-02-01T23:59:19.583Z,3.70
